sensor_id;sensor_type;location;lat;lon;timestamp;temperature;humidity
13998;DHT22;7074;51.508;7.018;2023-07-31T04:14:35;18.50;99.90
13998;DHT22;7074;51.508;7.018;2023-07-31T04:17:02;18.50;99.90
13998;DHT22;7074;51.508;7.018;2023-07-31T04:19:30;18.50;99.90
13998;DHT22;7074;51.508;7.018;2023-07-31T04:21:57;18.60;99.90
13998;DHT22;7074;51.508;7.018;2023-07-31T04:24:24;18.60;99.90
13998;DHT22;7074;51.508;7.018;2023-07-31T04:26:52;18.60;99.90
13998;DHT22;7074;51.508;7.018;2023-07-31T04:29:20;18.70;99.90
13998;DHT22;7074;51.508;7.018;2023-07-31T04:31:49;18.60;99.90
13998;DHT22;7074;51.508;7.018;2023-07-31T04:34:16;18.70;99.90
13998;DHT22;7074;51.508;7.018;2023-07-31T04:36:44;18.80;99.90
13998;DHT22;7074;51.508;7.018;2023-07-31T04:39:11;18.80;99.90
13998;DHT22;7074;51.508;7.018;2023-07-31T04:41:43;18.80;99.90
13998;DHT22;7074;51.508;7.018;2023-07-31T04:44:12;18.70;99.90
13998;DHT22;7074;51.508;7.018;2023-07-31T04:46:46;18.70;99.90
13998;DHT22;7074;51.508;7.018;2023-07-31T04:49:19;18.80;99.90
13998;DHT22;7074;51.508;7.018;2023-07-31T04:51:50;18.80;99.90
13998;DHT22;7074;51.508;7.018;2023-07-31T04:54:22;18.80;99.90
13998;DHT22;7074;51.508;7.018;2023-07-31T04:56:51;18.90;99.90
13998;DHT22;7074;51.508;7.018;2023-07-31T04:59:24;19.00;99.90
13998;DHT22;7074;51.508;7.018;2023-07-31T05:02:00;18.90;99.90
13998;DHT22;7074;51.508;7.018;2023-07-31T05:04:40;18.90;99.90
13998;DHT22;7074;51.508;7.018;2023-07-31T05:07:12;18.90;99.90
13998;DHT22;7074;51.508;7.018;2023-07-31T05:09:42;19.00;99.90
13998;DHT22;7074;51.508;7.018;2023-07-31T05:12:11;19.00;99.90
13998;DHT22;7074;51.508;7.018;2023-07-31T05:14:44;19.00;99.90
13998;DHT22;7074;51.508;7.018;2023-07-31T05:17:12;19.00;99.90
13998;DHT22;7074;51.508;7.018;2023-07-31T05:20:01;19.00;99.90
13998;DHT22;7074;51.508;7.018;2023-07-31T05:22:32;19.00;99.90
13998;DHT22;7074;51.508;7.018;2023-07-31T05:25:01;19.10;99.90
13998;DHT22;7074;51.508;7.018;2023-07-31T05:27:38;19.00;99.90
13998;DHT22;7074;51.508;7.018;2023-07-31T05:30:29;19.00;99.90
13998;DHT22;7074;51.508;7.018;2023-07-31T05:33:52;19.10;99.90
13998;DHT22;7074;51.508;7.018;2023-07-31T05:36:37;19.10;99.90
13998;DHT22;7074;51.508;7.018;2023-07-31T05:39:21;19.00;99.90
13998;DHT22;7074;51.508;7.018;2023-07-31T05:41:55;19.00;99.90
13998;DHT22;7074;51.508;7.018;2023-07-31T05:44:25;19.00;99.90
13998;DHT22;7074;51.508;7.018;2023-07-31T05:46:53;19.00;99.90
13998;DHT22;7074;51.508;7.018;2023-07-31T05:49:20;19.00;99.90
13998;DHT22;7074;51.508;7.018;2023-07-31T05:51:50;19.00;99.90
13998;DHT22;7074;51.508;7.018;2023-07-31T05:54:17;19.00;99.90
13998;DHT22;7074;51.508;7.018;2023-07-31T05:56:47;19.00;99.90
13998;DHT22;7074;51.508;7.018;2023-07-31T05:59:15;19.10;99.90
13998;DHT22;7074;51.508;7.018;2023-07-31T06:02:03;19.10;99.90
13998;DHT22;7074;51.508;7.018;2023-07-31T06:04:33;19.10;99.90
13998;DHT22;7074;51.508;7.018;2023-07-31T06:07:02;19.10;99.90
13998;DHT22;7074;51.508;7.018;2023-07-31T06:09:30;19.10;99.90
13998;DHT22;7074;51.508;7.018;2023-07-31T06:11:57;19.00;99.90
13998;DHT22;7074;51.508;7.018;2023-07-31T06:14:24;19.00;99.90
13998;DHT22;7074;51.508;7.018;2023-07-31T06:16:51;19.00;99.90
13998;DHT22;7074;51.508;7.018;2023-07-31T06:19:18;19.10;99.90
13998;DHT22;7074;51.508;7.018;2023-07-31T06:21:48;19.10;99.90
13998;DHT22;7074;51.508;7.018;2023-07-31T06:24:17;19.10;99.90
13998;DHT22;7074;51.508;7.018;2023-07-31T06:26:46;19.10;99.90
13998;DHT22;7074;51.508;7.018;2023-07-31T06:29:14;19.20;99.90
13998;DHT22;7074;51.508;7.018;2023-07-31T06:31:41;19.10;99.90
13998;DHT22;7074;51.508;7.018;2023-07-31T06:34:09;19.10;99.90
13998;DHT22;7074;51.508;7.018;2023-07-31T06:36:37;19.20;99.90
13998;DHT22;7074;51.508;7.018;2023-07-31T06:39:04;19.10;99.90
13998;DHT22;7074;51.508;7.018;2023-07-31T06:41:33;19.10;99.90
13998;DHT22;7074;51.508;7.018;2023-07-31T06:44:05;19.20;99.90
13998;DHT22;7074;51.508;7.018;2023-07-31T06:46:33;19.10;99.90
13998;DHT22;7074;51.508;7.018;2023-07-31T06:49:01;19.10;99.90
13998;DHT22;7074;51.508;7.018;2023-07-31T06:51:29;19.10;99.90
13998;DHT22;7074;51.508;7.018;2023-07-31T06:53:57;19.10;99.90
13998;DHT22;7074;51.508;7.018;2023-07-31T06:56:25;19.00;99.90
13998;DHT22;7074;51.508;7.018;2023-07-31T06:58:55;19.10;99.90
13998;DHT22;7074;51.508;7.018;2023-07-31T07:01:22;19.00;99.90
13998;DHT22;7074;51.508;7.018;2023-07-31T07:03:50;19.10;99.90
13998;DHT22;7074;51.508;7.018;2023-07-31T07:06:18;19.10;99.90
13998;DHT22;7074;51.508;7.018;2023-07-31T07:08:45;19.10;99.90
13998;DHT22;7074;51.508;7.018;2023-07-31T07:11:13;19.10;99.90
13998;DHT22;7074;51.508;7.018;2023-07-31T07:13:41;19.10;99.90
13998;DHT22;7074;51.508;7.018;2023-07-31T07:16:10;19.10;99.90
13998;DHT22;7074;51.508;7.018;2023-07-31T07:18:40;19.00;99.90
13998;DHT22;7074;51.508;7.018;2023-07-31T07:21:07;19.00;99.90
13998;DHT22;7074;51.508;7.018;2023-07-31T07:23:35;19.00;99.90
13998;DHT22;7074;51.508;7.018;2023-07-31T07:26:03;19.00;99.90
13998;DHT22;7074;51.508;7.018;2023-07-31T07:28:32;19.10;99.90
13998;DHT22;7074;51.508;7.018;2023-07-31T07:31:00;19.00;99.90
13998;DHT22;7074;51.508;7.018;2023-07-31T07:33:30;19.10;99.90
13998;DHT22;7074;51.508;7.018;2023-07-31T07:36:00;19.00;99.90
13998;DHT22;7074;51.508;7.018;2023-07-31T07:38:28;18.80;99.90
13998;DHT22;7074;51.508;7.018;2023-07-31T07:40:56;18.90;99.90
13998;DHT22;7074;51.508;7.018;2023-07-31T07:43:24;18.90;99.90
13998;DHT22;7074;51.508;7.018;2023-07-31T07:45:51;18.80;99.90
13998;DHT22;7074;51.508;7.018;2023-07-31T07:48:22;18.90;99.90
13998;DHT22;7074;51.508;7.018;2023-07-31T07:50:52;18.90;99.90
13998;DHT22;7074;51.508;7.018;2023-07-31T07:53:20;19.00;99.90
13998;DHT22;7074;51.508;7.018;2023-07-31T07:55:48;19.00;99.90
13998;DHT22;7074;51.508;7.018;2023-07-31T07:58:15;18.90;99.90
13998;DHT22;7074;51.508;7.018;2023-07-31T08:00:48;19.00;99.90
13998;DHT22;7074;51.508;7.018;2023-07-31T08:03:16;18.90;99.90
13998;DHT22;7074;51.508;7.018;2023-07-31T08:17:05;18.90;99.90
13998;DHT22;7074;51.508;7.018;2023-07-31T08:19:36;19.00;99.90
13998;DHT22;7074;51.508;7.018;2023-07-31T08:22:27;19.00;99.90
13998;DHT22;7074;51.508;7.018;2023-07-31T08:26:40;19.00;99.90
13998;DHT22;7074;51.508;7.018;2023-07-31T08:29:16;19.00;99.90
13998;DHT22;7074;51.508;7.018;2023-07-31T08:39:31;19.00;99.90
13998;DHT22;7074;51.508;7.018;2023-07-31T08:46:33;18.90;99.90
13998;DHT22;7074;51.508;7.018;2023-07-31T09:25:21;18.90;99.90
13998;DHT22;7074;51.508;7.018;2023-07-31T09:27:51;18.80;99.90
13998;DHT22;7074;51.508;7.018;2023-07-31T09:30:19;18.80;99.90
13998;DHT22;7074;51.508;7.018;2023-07-31T09:32:47;18.80;99.90
13998;DHT22;7074;51.508;7.018;2023-07-31T09:35:20;18.70;99.90
13998;DHT22;7074;51.508;7.018;2023-07-31T09:37:52;18.80;99.90
13998;DHT22;7074;51.508;7.018;2023-07-31T09:40:28;18.80;99.90
13998;DHT22;7074;51.508;7.018;2023-07-31T09:42:57;18.90;99.90
13998;DHT22;7074;51.508;7.018;2023-07-31T09:45:25;18.90;99.90
13998;DHT22;7074;51.508;7.018;2023-07-31T09:47:53;18.90;99.90
13998;DHT22;7074;51.508;7.018;2023-07-31T09:50:22;18.90;99.90
13998;DHT22;7074;51.508;7.018;2023-07-31T09:52:50;18.90;99.90
13998;DHT22;7074;51.508;7.018;2023-07-31T09:55:18;19.10;99.90
13998;DHT22;7074;51.508;7.018;2023-07-31T09:57:48;19.00;99.90
13998;DHT22;7074;51.508;7.018;2023-07-31T10:00:18;19.10;99.90
13998;DHT22;7074;51.508;7.018;2023-07-31T10:02:47;19.10;99.90
13998;DHT22;7074;51.508;7.018;2023-07-31T10:05:15;19.10;99.90
13998;DHT22;7074;51.508;7.018;2023-07-31T10:07:45;19.20;99.90
13998;DHT22;7074;51.508;7.018;2023-07-31T10:10:15;19.20;99.90
13998;DHT22;7074;51.508;7.018;2023-07-31T10:12:44;19.20;99.90
13998;DHT22;7074;51.508;7.018;2023-07-31T10:15:15;19.20;99.90
13998;DHT22;7074;51.508;7.018;2023-07-31T10:17:42;19.00;99.90
13998;DHT22;7074;51.508;7.018;2023-07-31T10:20:11;19.10;99.90
13998;DHT22;7074;51.508;7.018;2023-07-31T10:22:38;19.20;99.90
13998;DHT22;7074;51.508;7.018;2023-07-31T10:25:08;19.10;99.90
13998;DHT22;7074;51.508;7.018;2023-07-31T10:27:36;19.10;99.90
13998;DHT22;7074;51.508;7.018;2023-07-31T10:30:07;19.20;99.90
13998;DHT22;7074;51.508;7.018;2023-07-31T10:32:38;19.20;99.90
13998;DHT22;7074;51.508;7.018;2023-07-31T10:35:06;19.20;99.90
13998;DHT22;7074;51.508;7.018;2023-07-31T10:37:37;19.30;99.90
13998;DHT22;7074;51.508;7.018;2023-07-31T10:40:06;19.20;99.90
13998;DHT22;7074;51.508;7.018;2023-07-31T10:42:37;19.20;99.90
13998;DHT22;7074;51.508;7.018;2023-07-31T10:45:07;19.20;99.90
13998;DHT22;7074;51.508;7.018;2023-07-31T10:47:42;19.20;99.90
13998;DHT22;7074;51.508;7.018;2023-07-31T10:50:16;19.10;99.90
13998;DHT22;7074;51.508;7.018;2023-07-31T10:52:46;19.10;99.90
13998;DHT22;7074;51.508;7.018;2023-07-31T10:55:26;19.10;99.90
13998;DHT22;7074;51.508;7.018;2023-07-31T10:57:54;19.20;99.90
13998;DHT22;7074;51.508;7.018;2023-07-31T11:00:23;19.30;99.90
13998;DHT22;7074;51.508;7.018;2023-07-31T11:03:01;19.40;99.90
13998;DHT22;7074;51.508;7.018;2023-07-31T11:05:48;19.40;99.90
13998;DHT22;7074;51.508;7.018;2023-07-31T11:08:17;19.40;99.90
13998;DHT22;7074;51.508;7.018;2023-07-31T11:10:46;19.50;99.90
13998;DHT22;7074;51.508;7.018;2023-07-31T11:13:14;19.50;99.90
13998;DHT22;7074;51.508;7.018;2023-07-31T11:15:42;19.60;99.90
13998;DHT22;7074;51.508;7.018;2023-07-31T11:18:10;19.50;99.90
13998;DHT22;7074;51.508;7.018;2023-07-31T11:20:38;19.60;99.90
13998;DHT22;7074;51.508;7.018;2023-07-31T11:23:08;19.60;99.90
13998;DHT22;7074;51.508;7.018;2023-07-31T11:25:37;19.70;99.90
13998;DHT22;7074;51.508;7.018;2023-07-31T11:28:08;19.70;99.90
13998;DHT22;7074;51.508;7.018;2023-07-31T11:30:36;19.80;99.90
13998;DHT22;7074;51.508;7.018;2023-07-31T11:33:05;19.80;99.90
13998;DHT22;7074;51.508;7.018;2023-07-31T11:35:35;19.80;99.90
13998;DHT22;7074;51.508;7.018;2023-07-31T11:38:03;19.80;99.90
13998;DHT22;7074;51.508;7.018;2023-07-31T11:40:31;19.70;99.90
13998;DHT22;7074;51.508;7.018;2023-07-31T11:43:03;19.80;99.90
13998;DHT22;7074;51.508;7.018;2023-07-31T11:45:31;19.80;99.90
13998;DHT22;7074;51.508;7.018;2023-07-31T11:48:19;19.80;99.90
13998;DHT22;7074;51.508;7.018;2023-07-31T11:51:29;19.90;99.90
13998;DHT22;7074;51.508;7.018;2023-07-31T11:57:59;19.90;99.90
13998;DHT22;7074;51.508;7.018;2023-07-31T12:04:20;19.90;99.90
13998;DHT22;7074;51.508;7.018;2023-07-31T12:06:52;19.90;99.90
13998;DHT22;7074;51.508;7.018;2023-07-31T12:09:20;20.00;99.90
13998;DHT22;7074;51.508;7.018;2023-07-31T12:11:48;20.10;99.90
13998;DHT22;7074;51.508;7.018;2023-07-31T12:14:20;20.10;99.90
13998;DHT22;7074;51.508;7.018;2023-07-31T12:16:53;20.10;99.90
13998;DHT22;7074;51.508;7.018;2023-07-31T12:19:21;20.20;99.90
13998;DHT22;7074;51.508;7.018;2023-07-31T12:21:51;20.10;99.90
13998;DHT22;7074;51.508;7.018;2023-07-31T12:24:19;20.10;99.90
13998;DHT22;7074;51.508;7.018;2023-07-31T12:26:47;20.20;99.90
13998;DHT22;7074;51.508;7.018;2023-07-31T12:29:15;19.90;99.90
13998;DHT22;7074;51.508;7.018;2023-07-31T12:31:43;20.00;99.90
13998;DHT22;7074;51.508;7.018;2023-07-31T12:34:17;20.10;99.90
13998;DHT22;7074;51.508;7.018;2023-07-31T12:36:47;20.00;99.90
13998;DHT22;7074;51.508;7.018;2023-07-31T12:39:20;19.90;99.90
13998;DHT22;7074;51.508;7.018;2023-07-31T12:41:48;20.00;99.90
13998;DHT22;7074;51.508;7.018;2023-07-31T12:51:17;20.30;99.90
13998;DHT22;7074;51.508;7.018;2023-07-31T12:54:10;20.40;99.90
13998;DHT22;7074;51.508;7.018;2023-07-31T12:56:46;20.40;99.90
13998;DHT22;7074;51.508;7.018;2023-07-31T12:59:16;20.50;99.90
13998;DHT22;7074;51.508;7.018;2023-07-31T13:01:46;20.50;99.90
13998;DHT22;7074;51.508;7.018;2023-07-31T13:04:21;20.50;99.90
13998;DHT22;7074;51.508;7.018;2023-07-31T13:06:52;20.40;99.90
13998;DHT22;7074;51.508;7.018;2023-07-31T13:13:26;20.40;99.90
13998;DHT22;7074;51.508;7.018;2023-07-31T13:19:24;20.40;99.90
13998;DHT22;7074;51.508;7.018;2023-07-31T13:21:52;20.50;99.90
13998;DHT22;7074;51.508;7.018;2023-07-31T13:24:20;20.60;99.90
13998;DHT22;7074;51.508;7.018;2023-07-31T13:26:47;20.60;99.90
13998;DHT22;7074;51.508;7.018;2023-07-31T13:29:16;20.50;99.90
13998;DHT22;7074;51.508;7.018;2023-07-31T13:31:43;20.60;99.90
13998;DHT22;7074;51.508;7.018;2023-07-31T13:34:11;20.60;99.90
13998;DHT22;7074;51.508;7.018;2023-07-31T13:36:38;20.60;99.90
13998;DHT22;7074;51.508;7.018;2023-07-31T13:39:06;20.50;99.90
13998;DHT22;7074;51.508;7.018;2023-07-31T13:41:33;20.50;99.90
13998;DHT22;7074;51.508;7.018;2023-07-31T13:44:00;20.50;99.90
13998;DHT22;7074;51.508;7.018;2023-07-31T13:46:29;20.60;99.90
13998;DHT22;7074;51.508;7.018;2023-07-31T13:48:58;20.60;99.90
13998;DHT22;7074;51.508;7.018;2023-07-31T13:51:25;20.60;99.90
13998;DHT22;7074;51.508;7.018;2023-07-31T13:53:53;20.70;99.90
13998;DHT22;7074;51.508;7.018;2023-07-31T13:56:21;20.70;99.90
13998;DHT22;7074;51.508;7.018;2023-07-31T13:58:52;20.70;99.90
13998;DHT22;7074;51.508;7.018;2023-07-31T14:08:52;20.70;99.90
13998;DHT22;7074;51.508;7.018;2023-07-31T14:11:52;20.70;99.90
13998;DHT22;7074;51.508;7.018;2023-07-31T14:17:51;20.90;99.90
13998;DHT22;7074;51.508;7.018;2023-07-31T14:21:15;21.00;99.90
13998;DHT22;7074;51.508;7.018;2023-07-31T14:24:02;21.10;99.90
13998;DHT22;7074;51.508;7.018;2023-07-31T14:26:54;21.30;99.90
13998;DHT22;7074;51.508;7.018;2023-07-31T14:29:42;21.50;99.90
13998;DHT22;7074;51.508;7.018;2023-07-31T14:32:22;21.50;99.90
13998;DHT22;7074;51.508;7.018;2023-07-31T14:35:14;21.50;99.90
13998;DHT22;7074;51.508;7.018;2023-07-31T14:44:31;21.30;99.90
13998;DHT22;7074;51.508;7.018;2023-07-31T14:47:07;21.30;99.90
13998;DHT22;7074;51.508;7.018;2023-07-31T14:52:08;21.20;99.90
13998;DHT22;7074;51.508;7.018;2023-07-31T14:54:01;21.10;99.90
13998;DHT22;7074;51.508;7.018;2023-07-31T14:56:56;21.00;99.90
13998;DHT22;7074;51.508;7.018;2023-07-31T15:09:09;21.00;99.90
13998;DHT22;7074;51.508;7.018;2023-07-31T15:12:27;21.00;99.90
13998;DHT22;7074;51.508;7.018;2023-07-31T15:15:54;20.80;99.90
13998;DHT22;7074;51.508;7.018;2023-07-31T15:18:31;20.80;99.90
13998;DHT22;7074;51.508;7.018;2023-07-31T15:20:58;20.80;99.90
13998;DHT22;7074;51.508;7.018;2023-07-31T15:23:26;20.60;99.90
13998;DHT22;7074;51.508;7.018;2023-07-31T15:25:55;20.60;99.90
13998;DHT22;7074;51.508;7.018;2023-07-31T15:28:23;20.50;99.90
13998;DHT22;7074;51.508;7.018;2023-07-31T15:30:50;20.60;99.90
13998;DHT22;7074;51.508;7.018;2023-07-31T15:33:18;20.60;99.90
13998;DHT22;7074;51.508;7.018;2023-07-31T15:35:45;20.70;99.90
13998;DHT22;7074;51.508;7.018;2023-07-31T15:38:12;20.70;99.90
13998;DHT22;7074;51.508;7.018;2023-07-31T15:40:43;20.70;99.90
13998;DHT22;7074;51.508;7.018;2023-07-31T15:43:12;20.70;99.90
13998;DHT22;7074;51.508;7.018;2023-07-31T15:45:40;20.80;99.90
13998;DHT22;7074;51.508;7.018;2023-07-31T15:48:07;20.80;99.90
13998;DHT22;7074;51.508;7.018;2023-07-31T15:50:34;20.80;99.90
13998;DHT22;7074;51.508;7.018;2023-07-31T15:53:04;20.80;99.90
13998;DHT22;7074;51.508;7.018;2023-07-31T15:55:31;20.90;99.90
13998;DHT22;7074;51.508;7.018;2023-07-31T15:57:58;20.90;99.90
13998;DHT22;7074;51.508;7.018;2023-07-31T16:00:28;20.90;99.90
13998;DHT22;7074;51.508;7.018;2023-07-31T16:02:55;20.90;99.90
13998;DHT22;7074;51.508;7.018;2023-07-31T16:05:22;20.90;99.90
13998;DHT22;7074;51.508;7.018;2023-07-31T16:07:50;20.90;99.90
13998;DHT22;7074;51.508;7.018;2023-07-31T16:10:17;20.80;99.90
13998;DHT22;7074;51.508;7.018;2023-07-31T16:12:48;20.90;99.90
13998;DHT22;7074;51.508;7.018;2023-07-31T16:15:22;20.80;99.90
13998;DHT22;7074;51.508;7.018;2023-07-31T16:17:51;20.80;99.90
13998;DHT22;7074;51.508;7.018;2023-07-31T16:20:18;20.70;99.90
13998;DHT22;7074;51.508;7.018;2023-07-31T16:22:46;20.60;99.90
13998;DHT22;7074;51.508;7.018;2023-07-31T16:25:14;20.60;99.90
13998;DHT22;7074;51.508;7.018;2023-07-31T16:27:41;20.50;99.90
13998;DHT22;7074;51.508;7.018;2023-07-31T16:30:09;20.40;99.90
13998;DHT22;7074;51.508;7.018;2023-07-31T16:32:36;20.40;99.90
13998;DHT22;7074;51.508;7.018;2023-07-31T16:35:06;20.30;99.90
13998;DHT22;7074;51.508;7.018;2023-07-31T16:37:33;20.30;99.90
13998;DHT22;7074;51.508;7.018;2023-07-31T16:40:03;20.30;99.90
13998;DHT22;7074;51.508;7.018;2023-07-31T16:42:54;20.30;99.90
13998;DHT22;7074;51.508;7.018;2023-07-31T16:45:22;20.30;99.90
13998;DHT22;7074;51.508;7.018;2023-07-31T16:47:49;20.30;99.90
13998;DHT22;7074;51.508;7.018;2023-07-31T16:50:19;20.40;99.90
13998;DHT22;7074;51.508;7.018;2023-07-31T16:52:46;20.30;99.90
13998;DHT22;7074;51.508;7.018;2023-07-31T16:55:14;20.30;99.90
13998;DHT22;7074;51.508;7.018;2023-07-31T16:57:42;20.30;99.90
13998;DHT22;7074;51.508;7.018;2023-07-31T17:00:11;20.30;99.90
13998;DHT22;7074;51.508;7.018;2023-07-31T17:02:39;20.30;99.90
13998;DHT22;7074;51.508;7.018;2023-07-31T17:05:08;20.30;99.90
13998;DHT22;7074;51.508;7.018;2023-07-31T17:07:37;20.30;99.90
13998;DHT22;7074;51.508;7.018;2023-07-31T17:10:06;20.30;99.90
13998;DHT22;7074;51.508;7.018;2023-07-31T17:12:34;20.20;99.90
13998;DHT22;7074;51.508;7.018;2023-07-31T17:15:01;20.10;99.90
13998;DHT22;7074;51.508;7.018;2023-07-31T17:17:29;20.10;99.90
13998;DHT22;7074;51.508;7.018;2023-07-31T17:19:56;20.10;99.90
13998;DHT22;7074;51.508;7.018;2023-07-31T17:22:23;20.10;99.90
13998;DHT22;7074;51.508;7.018;2023-07-31T17:24:53;20.20;99.90
13998;DHT22;7074;51.508;7.018;2023-07-31T17:27:21;20.20;99.90
13998;DHT22;7074;51.508;7.018;2023-07-31T17:29:50;20.20;99.90
13998;DHT22;7074;51.508;7.018;2023-07-31T17:32:17;20.10;99.90
13998;DHT22;7074;51.508;7.018;2023-07-31T17:34:46;20.10;99.90
13998;DHT22;7074;51.508;7.018;2023-07-31T17:37:14;20.10;99.90
13998;DHT22;7074;51.508;7.018;2023-07-31T17:39:41;20.00;99.90
13998;DHT22;7074;51.508;7.018;2023-07-31T17:42:12;20.00;99.90
13998;DHT22;7074;51.508;7.018;2023-07-31T17:44:39;19.90;99.90
13998;DHT22;7074;51.508;7.018;2023-07-31T17:47:07;19.90;99.90
13998;DHT22;7074;51.508;7.018;2023-07-31T17:49:34;19.90;99.90
13998;DHT22;7074;51.508;7.018;2023-07-31T17:52:02;19.80;99.90
13998;DHT22;7074;51.508;7.018;2023-07-31T17:54:30;19.70;99.90
13998;DHT22;7074;51.508;7.018;2023-07-31T17:56:57;19.80;99.90
13998;DHT22;7074;51.508;7.018;2023-07-31T17:59:26;19.80;99.90
13998;DHT22;7074;51.508;7.018;2023-07-31T18:01:53;19.70;99.90
13998;DHT22;7074;51.508;7.018;2023-07-31T18:04:21;19.70;99.90
13998;DHT22;7074;51.508;7.018;2023-07-31T18:06:48;19.70;99.90
13998;DHT22;7074;51.508;7.018;2023-07-31T18:09:15;19.60;99.90
13998;DHT22;7074;51.508;7.018;2023-07-31T18:11:43;19.70;99.90
13998;DHT22;7074;51.508;7.018;2023-07-31T18:14:10;19.40;99.90
13998;DHT22;7074;51.508;7.018;2023-07-31T18:16:39;19.50;99.90
13998;DHT22;7074;51.508;7.018;2023-07-31T18:19:06;19.50;99.90
13998;DHT22;7074;51.508;7.018;2023-07-31T18:21:35;19.50;99.90
13998;DHT22;7074;51.508;7.018;2023-07-31T18:24:03;19.50;99.90
13998;DHT22;7074;51.508;7.018;2023-07-31T18:26:33;19.50;99.90
13998;DHT22;7074;51.508;7.018;2023-07-31T18:29:02;19.50;99.90
13998;DHT22;7074;51.508;7.018;2023-07-31T18:31:29;19.40;99.90
13998;DHT22;7074;51.508;7.018;2023-07-31T18:33:58;19.40;99.90
13998;DHT22;7074;51.508;7.018;2023-07-31T18:36:25;19.40;99.90
13998;DHT22;7074;51.508;7.018;2023-07-31T18:38:54;19.30;99.90
13998;DHT22;7074;51.508;7.018;2023-07-31T18:41:21;19.40;99.90
13998;DHT22;7074;51.508;7.018;2023-07-31T18:43:52;19.30;99.90
13998;DHT22;7074;51.508;7.018;2023-07-31T18:46:19;19.30;99.90
13998;DHT22;7074;51.508;7.018;2023-07-31T18:48:47;19.30;99.90
13998;DHT22;7074;51.508;7.018;2023-07-31T18:51:15;19.40;99.90
13998;DHT22;7074;51.508;7.018;2023-07-31T18:53:43;19.40;99.90
13998;DHT22;7074;51.508;7.018;2023-07-31T18:56:11;19.30;99.90
13998;DHT22;7074;51.508;7.018;2023-07-31T18:58:38;19.30;99.90
13998;DHT22;7074;51.508;7.018;2023-07-31T19:01:05;19.30;99.90
13998;DHT22;7074;51.508;7.018;2023-07-31T19:03:32;19.30;99.90
13998;DHT22;7074;51.508;7.018;2023-07-31T19:06:01;19.30;99.90
13998;DHT22;7074;51.508;7.018;2023-07-31T19:08:31;19.30;99.90
13998;DHT22;7074;51.508;7.018;2023-07-31T19:11:01;19.30;99.90
13998;DHT22;7074;51.508;7.018;2023-07-31T19:13:28;19.30;99.90
13998;DHT22;7074;51.508;7.018;2023-07-31T19:15:56;19.30;99.90
13998;DHT22;7074;51.508;7.018;2023-07-31T19:18:24;19.10;99.90
13998;DHT22;7074;51.508;7.018;2023-07-31T19:20:54;19.20;99.90
13998;DHT22;7074;51.508;7.018;2023-07-31T19:23:22;19.00;99.90
13998;DHT22;7074;51.508;7.018;2023-07-31T19:25:50;19.10;99.90
13998;DHT22;7074;51.508;7.018;2023-07-31T19:28:18;19.20;99.90
13998;DHT22;7074;51.508;7.018;2023-07-31T19:30:46;19.10;99.90
13998;DHT22;7074;51.508;7.018;2023-07-31T19:33:14;19.20;99.90
13998;DHT22;7074;51.508;7.018;2023-07-31T19:35:41;19.20;99.90
13998;DHT22;7074;51.508;7.018;2023-07-31T19:38:08;19.20;99.90
13998;DHT22;7074;51.508;7.018;2023-07-31T19:40:36;19.20;99.90
13998;DHT22;7074;51.508;7.018;2023-07-31T19:43:05;19.20;99.90
13998;DHT22;7074;51.508;7.018;2023-07-31T19:45:32;19.10;99.90
13998;DHT22;7074;51.508;7.018;2023-07-31T19:48:00;19.10;99.90
13998;DHT22;7074;51.508;7.018;2023-07-31T19:50:27;19.20;99.90
13998;DHT22;7074;51.508;7.018;2023-07-31T19:52:54;19.10;99.90
13998;DHT22;7074;51.508;7.018;2023-07-31T19:55:22;19.20;99.90
13998;DHT22;7074;51.508;7.018;2023-07-31T19:57:49;19.10;99.90
13998;DHT22;7074;51.508;7.018;2023-07-31T20:00:18;19.20;99.90
13998;DHT22;7074;51.508;7.018;2023-07-31T20:02:45;19.10;99.90
13998;DHT22;7074;51.508;7.018;2023-07-31T20:05:13;19.10;99.90
13998;DHT22;7074;51.508;7.018;2023-07-31T20:07:40;19.20;99.90
13998;DHT22;7074;51.508;7.018;2023-07-31T20:10:09;19.20;99.90
13998;DHT22;7074;51.508;7.018;2023-07-31T20:12:36;19.20;99.90
13998;DHT22;7074;51.508;7.018;2023-07-31T20:15:05;19.20;99.90
13998;DHT22;7074;51.508;7.018;2023-07-31T20:17:33;19.20;99.90
13998;DHT22;7074;51.508;7.018;2023-07-31T20:20:01;19.20;99.90
13998;DHT22;7074;51.508;7.018;2023-07-31T20:22:28;19.20;99.90
13998;DHT22;7074;51.508;7.018;2023-07-31T20:24:55;19.20;99.90
13998;DHT22;7074;51.508;7.018;2023-07-31T20:27:22;19.20;99.90
13998;DHT22;7074;51.508;7.018;2023-07-31T20:29:50;19.20;99.90
13998;DHT22;7074;51.508;7.018;2023-07-31T20:32:17;19.20;99.90
13998;DHT22;7074;51.508;7.018;2023-07-31T20:34:46;19.20;99.90
13998;DHT22;7074;51.508;7.018;2023-07-31T20:37:13;19.20;99.90
13998;DHT22;7074;51.508;7.018;2023-07-31T20:39:40;19.20;99.90
13998;DHT22;7074;51.508;7.018;2023-07-31T20:42:08;19.20;99.90
13998;DHT22;7074;51.508;7.018;2023-07-31T20:44:39;19.10;99.90
13998;DHT22;7074;51.508;7.018;2023-07-31T20:47:07;19.20;99.90
13998;DHT22;7074;51.508;7.018;2023-07-31T20:49:34;19.10;99.90
13998;DHT22;7074;51.508;7.018;2023-07-31T20:52:03;19.10;99.90
13998;DHT22;7074;51.508;7.018;2023-07-31T20:54:30;19.20;99.90
13998;DHT22;7074;51.508;7.018;2023-07-31T20:56:57;19.20;99.90
13998;DHT22;7074;51.508;7.018;2023-07-31T20:59:25;19.20;99.90
13998;DHT22;7074;51.508;7.018;2023-07-31T21:01:52;19.20;99.90
13998;DHT22;7074;51.508;7.018;2023-07-31T21:04:19;19.20;99.90
13998;DHT22;7074;51.508;7.018;2023-07-31T21:06:46;19.30;99.90
13998;DHT22;7074;51.508;7.018;2023-07-31T21:09:15;19.30;99.90
13998;DHT22;7074;51.508;7.018;2023-07-31T21:11:42;19.30;99.90
13998;DHT22;7074;51.508;7.018;2023-07-31T21:14:09;19.30;99.90
13998;DHT22;7074;51.508;7.018;2023-07-31T21:16:37;19.30;99.90
13998;DHT22;7074;51.508;7.018;2023-07-31T21:19:04;19.30;99.90
13998;DHT22;7074;51.508;7.018;2023-07-31T21:21:31;19.30;99.90
13998;DHT22;7074;51.508;7.018;2023-07-31T21:24:02;19.40;99.90
13998;DHT22;7074;51.508;7.018;2023-07-31T21:26:30;19.40;99.90
13998;DHT22;7074;51.508;7.018;2023-07-31T21:28:58;19.40;99.90
13998;DHT22;7074;51.508;7.018;2023-07-31T21:31:28;19.40;99.90
13998;DHT22;7074;51.508;7.018;2023-07-31T21:33:55;19.30;99.90
13998;DHT22;7074;51.508;7.018;2023-07-31T21:36:22;19.30;99.90
13998;DHT22;7074;51.508;7.018;2023-07-31T21:38:50;19.40;99.90
13998;DHT22;7074;51.508;7.018;2023-07-31T21:41:17;19.20;99.90
13998;DHT22;7074;51.508;7.018;2023-07-31T21:43:45;19.20;99.90
13998;DHT22;7074;51.508;7.018;2023-07-31T21:46:13;19.30;99.90
13998;DHT22;7074;51.508;7.018;2023-07-31T21:48:40;19.30;99.90
13998;DHT22;7074;51.508;7.018;2023-07-31T21:51:07;19.10;99.90
13998;DHT22;7074;51.508;7.018;2023-07-31T21:53:35;19.10;99.90
13998;DHT22;7074;51.508;7.018;2023-07-31T21:56:03;19.20;99.90
13998;DHT22;7074;51.508;7.018;2023-07-31T21:58:30;19.20;99.90
13998;DHT22;7074;51.508;7.018;2023-07-31T22:01:00;19.30;99.90
13998;DHT22;7074;51.508;7.018;2023-07-31T22:03:28;19.20;99.90
13998;DHT22;7074;51.508;7.018;2023-07-31T22:05:56;19.30;99.90
13998;DHT22;7074;51.508;7.018;2023-07-31T22:08:23;19.30;99.90
13998;DHT22;7074;51.508;7.018;2023-07-31T22:10:51;19.40;99.90